sensor_id;sensor_type;location;lat;lon;timestamp;pressure;altitude;pressure_sealevel;temperature;humidity
39051;BME280;24805;55.852;37.644;2022-09-03T00:03:02;99826.00;;;8.75;61.44
39051;BME280;24805;55.852;37.644;2022-09-03T00:08:20;99829.16;;;8.79;60.78
39051;BME280;24805;55.852;37.644;2022-09-03T00:13:46;99838.25;;;8.76;60.57
39051;BME280;24805;55.852;37.644;2022-09-03T00:18:56;99835.19;;;8.63;61.46
39051;BME280;24805;55.852;37.644;2022-09-03T00:24:02;99837.81;;;8.55;62.00
39051;BME280;24805;55.852;37.644;2022-09-03T00:29:39;99850.06;;;8.64;60.80
39051;BME280;24805;55.852;37.644;2022-09-03T00:34:48;99856.78;;;8.50;62.22
39051;BME280;24805;55.852;37.644;2022-09-03T00:39:55;99866.00;;;8.46;62.11
39051;BME280;24805;55.852;37.644;2022-09-03T00:50:32;99864.31;;;8.37;63.13
39051;BME280;24805;55.852;37.644;2022-09-03T01:01:01;99890.06;;;8.61;58.31
39051;BME280;24805;55.852;37.644;2022-09-03T01:33:34;99894.44;;;8.09;64.27
39051;BME280;24805;55.852;37.644;2022-09-03T01:50:03;99922.75;;;7.81;64.15
39051;BME280;24805;55.852;37.644;2022-09-03T02:00:38;99928.63;;;7.57;65.88
39051;BME280;24805;55.852;37.644;2022-09-03T02:05:42;99941.31;;;7.44;65.97
39051;BME280;24805;55.852;37.644;2022-09-03T02:10:56;99946.16;;;7.48;65.30
39051;BME280;24805;55.852;37.644;2022-09-03T02:16:09;99945.63;;;7.45;66.34
39051;BME280;24805;55.852;37.644;2022-09-03T02:21:14;99944.72;;;7.36;66.45
39051;BME280;24805;55.852;37.644;2022-09-03T02:26:21;99941.25;;;7.36;66.80
39051;BME280;24805;55.852;37.644;2022-09-03T02:31:25;99965.81;;;7.36;67.49
39051;BME280;24805;55.852;37.644;2022-09-03T02:36:34;99946.13;;;7.31;67.04
39051;BME280;24805;55.852;37.644;2022-09-03T02:41:38;99971.25;;;7.35;66.74
39051;BME280;24805;55.852;37.644;2022-09-03T02:46:49;99969.53;;;7.43;67.18
39051;BME280;24805;55.852;37.644;2022-09-03T02:51:56;99971.34;;;7.70;62.37
39051;BME280;24805;55.852;37.644;2022-09-03T02:56:59;99978.28;;;7.44;66.38
39051;BME280;24805;55.852;37.644;2022-09-03T03:02:01;99980.34;;;7.77;62.17
39051;BME280;24805;55.852;37.644;2022-09-03T03:07:04;99972.78;;;7.82;61.74
39051;BME280;24805;55.852;37.644;2022-09-03T03:12:06;99977.63;;;7.59;66.18
39051;BME280;24805;55.852;37.644;2022-09-03T03:17:09;99979.69;;;7.66;66.22
39051;BME280;24805;55.852;37.644;2022-09-03T03:22:12;99979.25;;;7.70;65.93
39051;BME280;24805;55.852;37.644;2022-09-03T03:27:14;99989.59;;;7.81;65.72
39051;BME280;24805;55.852;37.644;2022-09-03T03:32:16;100003.63;;;8.27;63.24
39051;BME280;24805;55.852;37.644;2022-09-03T03:37:18;100005.72;;;8.06;64.85
39051;BME280;24805;55.852;37.644;2022-09-03T03:42:20;100003.94;;;8.42;61.99
39051;BME280;24805;55.852;37.644;2022-09-03T03:47:22;100012.09;;;8.13;64.51
39051;BME280;24805;55.852;37.644;2022-09-03T03:52:26;100011.25;;;8.12;64.75
39051;BME280;24805;55.852;37.644;2022-09-03T03:57:30;100012.81;;;8.23;64.90
39051;BME280;24805;55.852;37.644;2022-09-03T04:02:33;100017.53;;;8.29;64.77
39051;BME280;24805;55.852;37.644;2022-09-03T04:07:39;100010.06;;;8.42;64.17
39051;BME280;24805;55.852;37.644;2022-09-03T04:12:41;100018.72;;;8.88;62.01
39051;BME280;24805;55.852;37.644;2022-09-03T04:17:44;100021.09;;;8.55;63.93
39051;BME280;24805;55.852;37.644;2022-09-03T04:22:46;100021.41;;;8.96;61.39
39051;BME280;24805;55.852;37.644;2022-09-03T04:27:53;100028.88;;;8.75;63.52
39051;BME280;24805;55.852;37.644;2022-09-03T04:32:56;100033.91;;;8.86;63.19
39051;BME280;24805;55.852;37.644;2022-09-03T04:37:59;100016.50;;;8.83;62.74
39051;BME280;24805;55.852;37.644;2022-09-03T04:43:01;100027.16;;;9.43;61.08
39051;BME280;24805;55.852;37.644;2022-09-03T04:48:03;100039.78;;;9.23;61.70
39051;BME280;24805;55.852;37.644;2022-09-03T04:53:06;100036.72;;;9.36;61.77
39051;BME280;24805;55.852;37.644;2022-09-03T04:58:09;100033.47;;;9.50;61.81
39051;BME280;24805;55.852;37.644;2022-09-03T05:03:11;100028.81;;;9.78;61.20
39051;BME280;24805;55.852;37.644;2022-09-03T05:08:13;100039.91;;;11.21;62.37
39051;BME280;24805;55.852;37.644;2022-09-03T05:13:15;100037.66;;;12.35;55.71
39051;BME280;24805;55.852;37.644;2022-09-03T05:18:18;100043.19;;;13.32;52.43
39051;BME280;24805;55.852;37.644;2022-09-03T05:23:20;100048.09;;;14.08;50.43
39051;BME280;24805;55.852;37.644;2022-09-03T05:28:25;100048.19;;;14.94;48.26
39051;BME280;24805;55.852;37.644;2022-09-03T05:33:36;100062.91;;;15.67;47.20
39051;BME280;24805;55.852;37.644;2022-09-03T05:38:39;100062.25;;;16.06;44.86
39051;BME280;24805;55.852;37.644;2022-09-03T05:43:41;100057.53;;;16.82;42.94
39051;BME280;24805;55.852;37.644;2022-09-03T05:48:43;100065.25;;;17.96;40.89
39051;BME280;24805;55.852;37.644;2022-09-03T05:53:47;100063.28;;;18.61;38.76
39051;BME280;24805;55.852;37.644;2022-09-03T05:58:51;100079.81;;;18.64;38.90
39051;BME280;24805;55.852;37.644;2022-09-03T06:09:03;100087.50;;;19.85;36.54
39051;BME280;24805;55.852;37.644;2022-09-03T06:14:09;100097.78;;;20.43;35.13
39051;BME280;24805;55.852;37.644;2022-09-03T06:19:12;100088.44;;;21.28;34.20
39051;BME280;24805;55.852;37.644;2022-09-03T06:24:20;100091.22;;;22.15;32.68
39051;BME280;24805;55.852;37.644;2022-09-03T06:29:29;100093.66;;;23.02;30.67
39051;BME280;24805;55.852;37.644;2022-09-03T06:34:31;100092.22;;;23.83;29.45
39051;BME280;24805;55.852;37.644;2022-09-03T06:39:33;100097.06;;;24.03;28.94
39051;BME280;24805;55.852;37.644;2022-09-03T06:44:35;100088.50;;;24.55;28.40
39051;BME280;24805;55.852;37.644;2022-09-03T06:49:37;100088.72;;;25.34;26.44
39051;BME280;24805;55.852;37.644;2022-09-03T06:54:41;100084.72;;;25.10;26.05
39051;BME280;24805;55.852;37.644;2022-09-03T06:59:43;100091.09;;;25.62;25.77
39051;BME280;24805;55.852;37.644;2022-09-03T07:04:46;100098.28;;;25.84;25.46
39051;BME280;24805;55.852;37.644;2022-09-03T07:09:49;100103.22;;;26.64;24.60
39051;BME280;24805;55.852;37.644;2022-09-03T07:14:53;100093.50;;;27.19;23.40
39051;BME280;24805;55.852;37.644;2022-09-03T07:19:56;100094.25;;;27.81;22.30
39051;BME280;24805;55.852;37.644;2022-09-03T07:24:58;100091.28;;;27.77;22.05
39051;BME280;24805;55.852;37.644;2022-09-03T07:30:00;100099.50;;;26.96;23.03
39051;BME280;24805;55.852;37.644;2022-09-03T07:35:04;100104.72;;;26.25;23.67
39051;BME280;24805;55.852;37.644;2022-09-03T07:40:06;100101.09;;;27.48;22.79
39051;BME280;24805;55.852;37.644;2022-09-03T07:45:09;100096.81;;;28.80;21.30
39051;BME280;24805;55.852;37.644;2022-09-03T07:50:11;100096.78;;;29.54;20.19
39051;BME280;24805;55.852;37.644;2022-09-03T07:55:13;100100.03;;;29.79;19.84
39051;BME280;24805;55.852;37.644;2022-09-03T08:00:16;100093.44;;;30.09;19.61
39051;BME280;24805;55.852;37.644;2022-09-03T08:05:19;100103.09;;;30.44;19.17
39051;BME280;24805;55.852;37.644;2022-09-03T08:10:21;100078.25;;;29.98;18.87
39051;BME280;24805;55.852;37.644;2022-09-03T08:15:24;100084.88;;;28.66;19.40
39051;BME280;24805;55.852;37.644;2022-09-03T08:20:27;100083.09;;;28.41;20.48
39051;BME280;24805;55.852;37.644;2022-09-03T08:25:31;100084.59;;;28.68;20.02
39051;BME280;24805;55.852;37.644;2022-09-03T08:30:34;100094.56;;;29.79;18.97
39051;BME280;24805;55.852;37.644;2022-09-03T08:35:36;100086.00;;;30.15;18.88
39051;BME280;24805;55.852;37.644;2022-09-03T08:40:40;100090.56;;;31.32;18.48
39051;BME280;24805;55.852;37.644;2022-09-03T08:45:44;100084.75;;;30.45;17.46
39051;BME280;24805;55.852;37.644;2022-09-03T08:50:48;100077.06;;;30.84;17.58
39051;BME280;24805;55.852;37.644;2022-09-03T08:56:05;100072.94;;;29.83;18.75
39051;BME280;24805;55.852;37.644;2022-09-03T09:01:11;100075.16;;;29.81;18.35
39051;BME280;24805;55.852;37.644;2022-09-03T09:06:28;100088.59;;;30.44;18.77
39051;BME280;24805;55.852;37.644;2022-09-03T09:22:40;100082.47;;;34.02;15.55
39051;BME280;24805;55.852;37.644;2022-09-03T09:28:12;100074.59;;;32.22;15.69
39051;BME280;24805;55.852;37.644;2022-09-03T09:33:17;100066.22;;;31.58;15.65
39051;BME280;24805;55.852;37.644;2022-09-03T09:38:30;100074.78;;;31.24;16.18
39051;BME280;24805;55.852;37.644;2022-09-03T09:43:33;100072.06;;;29.88;16.25
39051;BME280;24805;55.852;37.644;2022-09-03T09:48:38;100065.38;;;28.88;17.16
39051;BME280;24805;55.852;37.644;2022-09-03T09:53:48;100064.88;;;27.47;17.96
39051;BME280;24805;55.852;37.644;2022-09-03T09:59:11;100055.91;;;27.31;18.82
39051;BME280;24805;55.852;37.644;2022-09-03T10:04:23;100048.72;;;27.81;17.62
39051;BME280;24805;55.852;37.644;2022-09-03T10:09:33;100047.59;;;27.97;18.39
39051;BME280;24805;55.852;37.644;2022-09-03T10:20:08;100038.41;;;32.06;15.09
39051;BME280;24805;55.852;37.644;2022-09-03T10:25:38;100043.88;;;31.37;15.37
39051;BME280;24805;55.852;37.644;2022-09-03T10:31:01;100050.97;;;30.73;16.12
39051;BME280;24805;55.852;37.644;2022-09-03T10:36:17;100047.63;;;30.76;16.06
39051;BME280;24805;55.852;37.644;2022-09-03T10:41:31;100048.56;;;31.64;14.82
39051;BME280;24805;55.852;37.644;2022-09-03T10:52:48;100034.28;;;29.13;15.95
39051;BME280;24805;55.852;37.644;2022-09-03T11:03:42;100039.63;;;30.80;16.43
39051;BME280;24805;55.852;37.644;2022-09-03T11:09:13;100030.19;;;31.51;14.94
39051;BME280;24805;55.852;37.644;2022-09-03T11:14:34;100041.25;;;30.43;16.19
39051;BME280;24805;55.852;37.644;2022-09-03T11:19:55;100048.84;;;30.09;16.46
39051;BME280;24805;55.852;37.644;2022-09-03T11:25:01;100023.78;;;28.13;16.71
39051;BME280;24805;55.852;37.644;2022-09-03T11:30:13;100025.94;;;26.65;17.77
39051;BME280;24805;55.852;37.644;2022-09-03T11:40:39;100040.84;;;22.83;22.77
39051;BME280;24805;55.852;37.644;2022-09-03T11:45:43;100025.44;;;21.35;25.40
39051;BME280;24805;55.852;37.644;2022-09-03T11:50:53;100023.53;;;20.58;27.04
39051;BME280;24805;55.852;37.644;2022-09-03T12:01:08;100032.25;;;24.72;23.39
39051;BME280;24805;55.852;37.644;2022-09-03T12:06:29;100021.47;;;26.19;21.01
39051;BME280;24805;55.852;37.644;2022-09-03T12:22:17;99996.66;;;29.58;17.15
39051;BME280;24805;55.852;37.644;2022-09-03T12:27:23;99987.34;;;29.35;16.89
39051;BME280;24805;55.852;37.644;2022-09-03T12:32:28;99999.16;;;28.28;17.86
39051;BME280;24805;55.852;37.644;2022-09-03T12:37:35;99999.28;;;28.86;17.56
39051;BME280;24805;55.852;37.644;2022-09-03T12:43:16;99987.88;;;29.85;17.01
39051;BME280;24805;55.852;37.644;2022-09-03T12:48:38;99985.13;;;30.08;16.44
39051;BME280;24805;55.852;37.644;2022-09-03T12:53:49;99980.94;;;30.48;15.89
39051;BME280;24805;55.852;37.644;2022-09-03T12:58:56;99961.84;;;29.87;16.48
39051;BME280;24805;55.852;37.644;2022-09-03T13:04:05;99966.94;;;29.27;17.13
39051;BME280;24805;55.852;37.644;2022-09-03T13:09:12;99959.28;;;29.00;17.55
39051;BME280;24805;55.852;37.644;2022-09-03T13:14:15;99966.25;;;28.88;17.46
39051;BME280;24805;55.852;37.644;2022-09-03T13:40:48;99951.09;;;23.24;22.34
39051;BME280;24805;55.852;37.644;2022-09-03T13:46:07;99964.75;;;21.89;23.88
39051;BME280;24805;55.852;37.644;2022-09-03T13:56:35;99958.41;;;20.61;25.92
39051;BME280;24805;55.852;37.644;2022-09-03T14:07:02;99943.47;;;20.36;26.75
39051;BME280;24805;55.852;37.644;2022-09-03T14:12:24;99941.53;;;21.01;27.67
39051;BME280;24805;55.852;37.644;2022-09-03T14:17:39;99943.53;;;21.17;27.00
39051;BME280;24805;55.852;37.644;2022-09-03T14:27:48;99927.50;;;19.92;28.19
39051;BME280;24805;55.852;37.644;2022-09-03T14:43:37;99916.09;;;18.87;30.09
39051;BME280;24805;55.852;37.644;2022-09-03T14:54:12;99924.63;;;18.28;30.55
39051;BME280;24805;55.852;37.644;2022-09-03T15:10:37;99912.03;;;17.97;30.76
39051;BME280;24805;55.852;37.644;2022-09-03T15:20:58;99892.53;;;17.77;31.88
39051;BME280;24805;55.852;37.644;2022-09-03T15:31:39;99889.38;;;17.42;32.92
39051;BME280;24805;55.852;37.644;2022-09-03T15:36:51;99889.69;;;17.14;33.33
39051;BME280;24805;55.852;37.644;2022-09-03T15:42:00;99894.69;;;16.91;33.60
39051;BME280;24805;55.852;37.644;2022-09-03T15:47:08;99904.22;;;16.67;34.63
39051;BME280;24805;55.852;37.644;2022-09-03T15:52:41;99901.69;;;16.59;34.53
39051;BME280;24805;55.852;37.644;2022-09-03T15:58:25;99907.47;;;16.49;34.46
39051;BME280;24805;55.852;37.644;2022-09-03T16:14:30;99907.66;;;16.21;35.32
39051;BME280;24805;55.852;37.644;2022-09-03T16:19:42;99903.75;;;15.97;36.18
39051;BME280;24805;55.852;37.644;2022-09-03T16:24:54;99894.78;;;15.64;36.98
39051;BME280;24805;55.852;37.644;2022-09-03T16:30:13;99913.50;;;15.64;36.51
39051;BME280;24805;55.852;37.644;2022-09-03T16:41:20;99919.63;;;15.51;36.96
39051;BME280;24805;55.852;37.644;2022-09-03T16:52:06;99928.72;;;15.63;36.98
39051;BME280;24805;55.852;37.644;2022-09-03T17:07:56;99936.63;;;15.78;37.53
39051;BME280;24805;55.852;37.644;2022-09-03T17:50:25;99939.47;;;15.29;41.94
39051;BME280;24805;55.852;37.644;2022-09-03T17:55:37;99939.09;;;15.04;44.24
39051;BME280;24805;55.852;37.644;2022-09-03T18:01:14;99937.22;;;14.98;42.61
39051;BME280;24805;55.852;37.644;2022-09-03T18:07:05;99926.47;;;14.57;45.78
39051;BME280;24805;55.852;37.644;2022-09-03T18:12:25;99940.66;;;14.64;43.88
39051;BME280;24805;55.852;37.644;2022-09-03T18:18:01;99939.41;;;14.60;45.33
39051;BME280;24805;55.852;37.644;2022-09-03T18:29:02;99942.78;;;14.47;46.12
39051;BME280;24805;55.852;37.644;2022-09-03T18:34:32;99927.91;;;14.38;46.58
39051;BME280;24805;55.852;37.644;2022-09-03T18:39:55;99931.91;;;14.27;47.08
39051;BME280;24805;55.852;37.644;2022-09-03T18:56:50;99935.19;;;13.87;48.10
39051;BME280;24805;55.852;37.644;2022-09-03T19:08:24;99906.28;;;13.69;48.36
39051;BME280;24805;55.852;37.644;2022-09-03T19:13:48;99912.06;;;13.36;49.53
39051;BME280;24805;55.852;37.644;2022-09-03T19:24:40;99912.94;;;13.43;50.25
39051;BME280;24805;55.852;37.644;2022-09-03T19:30:07;99917.88;;;13.61;49.12
39051;BME280;24805;55.852;37.644;2022-09-03T19:41:40;99923.09;;;13.69;49.62
39051;BME280;24805;55.852;37.644;2022-09-03T19:47:06;99920.06;;;13.72;49.23
39051;BME280;24805;55.852;37.644;2022-09-03T19:58:16;99919.19;;;13.87;48.79
39051;BME280;24805;55.852;37.644;2022-09-03T20:03:44;99917.72;;;13.84;49.37
39051;BME280;24805;55.852;37.644;2022-09-03T20:09:08;99914.38;;;13.97;49.10
39051;BME280;24805;55.852;37.644;2022-09-03T20:14:29;99917.44;;;13.94;48.97
39051;BME280;24805;55.852;37.644;2022-09-03T20:30:28;99906.13;;;14.13;48.13
39051;BME280;24805;55.852;37.644;2022-09-03T20:40:45;99908.72;;;14.28;44.64
39051;BME280;24805;55.852;37.644;2022-09-03T20:51:06;99906.56;;;13.59;49.82
39051;BME280;24805;55.852;37.644;2022-09-03T20:56:32;99907.78;;;13.57;48.69
39051;BME280;24805;55.852;37.644;2022-09-03T21:02:07;99901.47;;;13.43;49.43
39051;BME280;24805;55.852;37.644;2022-09-03T21:07:31;99907.47;;;13.30;49.07
39051;BME280;24805;55.852;37.644;2022-09-03T21:12:50;99919.47;;;13.11;49.99
39051;BME280;24805;55.852;37.644;2022-09-03T21:23:30;99916.06;;;13.03;49.69
39051;BME280;24805;55.852;37.644;2022-09-03T21:28:38;99917.19;;;12.94;50.36
39051;BME280;24805;55.852;37.644;2022-09-03T21:33:46;99925.91;;;12.88;50.31
39051;BME280;24805;55.852;37.644;2022-09-03T21:38:56;99917.91;;;12.88;50.35
39051;BME280;24805;55.852;37.644;2022-09-03T21:44:15;99908.63;;;12.69;49.03
39051;BME280;24805;55.852;37.644;2022-09-03T21:54:48;99933.09;;;12.64;50.33
39051;BME280;24805;55.852;37.644;2022-09-03T22:00:08;99934.53;;;13.04;47.32
39051;BME280;24805;55.852;37.644;2022-09-03T22:05:15;99942.47;;;12.60;50.22
39051;BME280;24805;55.852;37.644;2022-09-03T22:15:42;99943.44;;;12.45;51.31
39051;BME280;24805;55.852;37.644;2022-09-03T22:20:46;99941.38;;;12.32;51.39
39051;BME280;24805;55.852;37.644;2022-09-03T22:26:12;99943.88;;;12.33;51.24
39051;BME280;24805;55.852;37.644;2022-09-03T22:31:26;99934.59;;;12.06;51.88
39051;BME280;24805;55.852;37.644;2022-09-03T22:36:39;99937.41;;;12.05;52.02
39051;BME280;24805;55.852;37.644;2022-09-03T22:42:21;99940.25;;;12.03;51.73
39051;BME280;24805;55.852;37.644;2022-09-03T22:53:13;99938.59;;;11.71;53.35
39051;BME280;24805;55.852;37.644;2022-09-03T22:58:22;99926.75;;;11.51;53.43
39051;BME280;24805;55.852;37.644;2022-09-03T23:03:36;99929.44;;;11.43;53.23
39051;BME280;24805;55.852;37.644;2022-09-03T23:08:46;99932.16;;;11.27;54.11
39051;BME280;24805;55.852;37.644;2022-09-03T23:13:56;99936.31;;;11.21;54.31
39051;BME280;24805;55.852;37.644;2022-09-03T23:19:11;99934.53;;;11.14;54.60
39051;BME280;24805;55.852;37.644;2022-09-03T23:24:23;99941.69;;;11.05;54.54
39051;BME280;24805;55.852;37.644;2022-09-03T23:34:33;99944.38;;;10.81;55.44
39051;BME280;24805;55.852;37.644;2022-09-03T23:40:00;99948.03;;;10.88;55.03
39051;BME280;24805;55.852;37.644;2022-09-03T23:51:04;99931.19;;;10.56;56.18
39051;BME280;24805;55.852;37.644;2022-09-03T23:56:31;99954.22;;;10.56;57.63
